createdAt,value
2019-05-11T08:57:10.244Z,4.47
2019-05-11T08:59:40.629Z,4.67
2019-05-11T09:02:11.698Z,5.87
2019-05-11T09:04:42.694Z,4.70
2019-05-11T09:07:12.907Z,5.50
2019-05-11T09:09:43.820Z,5.67
2019-05-11T09:12:13.487Z,6.67
2019-05-11T09:14:43.158Z,7.80
2019-05-11T09:17:12.444Z,6.27
2019-05-11T09:19:48.081Z,5.40
2019-05-11T09:22:18.891Z,3.97
2019-05-11T09:24:48.306Z,6.43
2019-05-11T09:27:18.381Z,5.00
2019-05-11T09:29:48.469Z,3.80
2019-05-11T09:32:18.099Z,3.70
2019-05-11T09:34:48.580Z,5.60
2019-05-11T09:37:18.549Z,20.57
2019-05-11T09:39:50.674Z,3.73
2019-05-11T09:42:20.555Z,6.23
2019-05-11T09:44:50.213Z,3.50
2019-05-11T09:47:19.671Z,3.80
2019-05-11T09:49:51.080Z,4.50
2019-05-11T09:52:20.554Z,4.27
2019-05-11T09:54:50.003Z,4.07
2019-05-11T09:57:19.280Z,4.07
2019-05-11T09:59:48.946Z,3.37
2019-05-11T10:02:21.071Z,3.60
2019-05-11T10:04:50.436Z,5.40
2019-05-11T10:07:20.253Z,4.50
2019-05-11T10:09:49.570Z,3.40
2019-05-11T10:12:18.938Z,4.00
2019-05-11T10:14:48.653Z,4.73
2019-05-11T10:17:19.654Z,4.03
2019-05-11T10:19:49.711Z,3.33
2019-05-11T10:22:21.887Z,5.13
2019-05-11T10:24:51.199Z,4.53
2019-05-11T10:27:22.370Z,4.00
2019-05-11T10:29:54.179Z,5.00
2019-05-11T10:32:23.675Z,3.97
2019-05-11T10:34:53.228Z,10.73
2019-05-11T10:37:24.254Z,5.67
2019-05-11T10:39:54.036Z,4.00
2019-05-11T10:42:23.944Z,24.87
2019-05-11T10:44:53.458Z,6.00
2019-05-11T10:47:22.762Z,3.57
2019-05-11T10:49:53.567Z,3.97
2019-05-11T10:52:22.870Z,3.57
2019-05-11T10:54:52.534Z,5.43
2019-05-11T10:57:28.293Z,3.93
2019-05-11T10:59:58.054Z,4.70
2019-05-11T11:02:28.016Z,4.80
2019-05-11T11:04:58.869Z,5.40
2019-05-11T11:07:29.045Z,4.80
2019-05-11T11:09:58.706Z,4.87
2019-05-11T11:12:28.935Z,3.73
2019-05-11T11:14:58.782Z,6.57
2019-05-11T11:17:28.706Z,4.30
2019-05-11T11:19:58.788Z,6.63
2019-05-11T11:22:36.920Z,4.73
2019-05-11T11:24:59.595Z,5.07
2019-05-11T11:27:32.171Z,3.90
2019-05-11T11:30:01.481Z,5.30
2019-05-11T11:32:34.227Z,5.83
2019-05-11T11:35:03.673Z,7.20
2019-05-11T11:37:38.634Z,6.77
2019-05-11T11:40:18.848Z,8.20
2019-05-11T11:42:50.641Z,13.30
2019-05-11T11:45:20.516Z,7.23
2019-05-11T11:47:51.367Z,6.53
2019-05-11T11:50:22.049Z,8.93
2019-05-11T11:52:51.332Z,10.27
2019-05-11T11:55:25.248Z,7.93
2019-05-11T11:57:55.896Z,7.93
2019-05-11T12:00:30.482Z,7.73
2019-05-11T12:03:00.170Z,7.20
2019-05-11T12:05:30.329Z,8.10
2019-05-11T12:07:59.840Z,14.07
2019-05-11T12:10:37.789Z,9.27
2019-05-11T12:13:12.655Z,11.47
2019-05-11T12:15:48.007Z,9.03
2019-05-11T12:18:19.079Z,14.13
2019-05-11T12:20:48.468Z,14.97
2019-05-11T12:23:21.906Z,9.67
2019-05-11T12:25:52.840Z,10.30
2019-05-11T12:28:22.511Z,7.60
2019-05-11T12:30:52.263Z,7.90
2019-05-11T12:33:22.622Z,7.80
2019-05-11T12:35:51.997Z,4.73
2019-05-11T12:38:22.004Z,8.33
2019-05-11T12:41:13.134Z,9.23
2019-05-11T12:43:49.813Z,6.83
2019-05-11T12:46:20.434Z,8.53
2019-05-11T12:48:52.503Z,6.90
2019-05-11T12:51:22.947Z,6.60
2019-05-11T12:53:52.608Z,8.90
2019-05-11T12:56:21.983Z,7.20
2019-05-11T12:58:51.696Z,10.40
2019-05-11T13:05:13.805Z,8.97
2019-05-11T13:07:44.229Z,11.83
2019-05-11T13:10:19.055Z,9.07
2019-05-11T13:12:49.401Z,8.30
2019-05-11T13:15:19.688Z,12.87
2019-05-11T13:17:49.445Z,9.20
2019-05-11T13:20:19.180Z,7.63
2019-05-11T13:22:49.730Z,8.80
2019-05-11T13:25:19.131Z,8.57
2019-05-11T13:27:49.854Z,11.70
2019-05-11T13:30:24.125Z,12.47
2019-05-11T13:32:54.920Z,7.50
2019-05-11T13:35:28.639Z,7.03
2019-05-11T13:37:58.671Z,6.27
2019-05-11T13:40:33.851Z,5.00
2019-05-11T13:43:04.319Z,7.87
2019-05-11T13:45:35.197Z,5.27
2019-05-11T13:48:04.555Z,4.83
2019-05-11T13:50:38.675Z,5.63
2019-05-11T13:53:08.184Z,6.97
2019-05-11T13:55:39.005Z,7.60
2019-05-11T13:58:09.328Z,6.87
2019-05-11T14:00:38.696Z,8.07
2019-05-11T14:03:08.869Z,11.10
2019-05-11T14:05:45.447Z,6.67
2019-05-11T14:08:18.790Z,12.40
2019-05-11T14:10:52.748Z,12.07
2019-05-11T14:13:22.039Z,8.30
2019-05-11T14:15:55.308Z,10.37
2019-05-11T14:18:25.017Z,10.07
2019-05-11T14:20:58.470Z,11.27
2019-05-11T14:24:34.947Z,11.63
2019-05-11T14:26:19.436Z,14.37
2019-05-11T14:28:50.194Z,15.20
2019-05-11T14:31:22.944Z,21.93
2019-05-11T14:33:52.652Z,17.70
2019-05-11T14:36:22.306Z,15.30
2019-05-11T14:38:51.620Z,18.80
2019-05-11T14:41:20.984Z,21.03
2019-05-11T14:43:52.825Z,18.70
2019-05-11T14:46:22.159Z,18.93
2019-05-11T14:48:59.101Z,16.43
2019-05-11T14:51:29.486Z,18.77
2019-05-11T14:53:59.614Z,16.53
2019-05-11T14:56:29.207Z,15.10
2019-05-11T14:58:59.355Z,19.27
2019-05-11T15:01:28.780Z,20.63
2019-05-11T15:03:58.887Z,17.37
2019-05-11T15:06:28.765Z,19.70
2019-05-11T15:08:58.518Z,16.47
2019-05-11T15:11:28.754Z,19.93
2019-05-11T15:13:58.432Z,14.43
2019-05-11T15:16:28.821Z,14.03
2019-05-11T15:18:59.546Z,16.33
2019-05-11T15:21:28.865Z,16.47
2019-05-11T15:23:58.478Z,16.30
2019-05-11T15:26:28.066Z,17.00
2019-05-11T15:28:58.538Z,19.43
2019-05-11T15:31:28.052Z,16.93
2019-05-11T15:33:57.850Z,23.27
2019-05-11T15:36:28.574Z,20.13
2019-05-11T15:38:58.368Z,19.20
2019-05-11T15:41:28.249Z,16.23
2019-05-11T15:44:00.586Z,19.43
2019-05-11T15:46:30.386Z,17.53
2019-05-11T15:49:03.277Z,14.90
2019-05-11T15:51:30.780Z,17.43
2019-05-11T15:54:00.091Z,18.43
2019-05-11T15:56:29.479Z,12.73
2019-05-11T15:59:00.815Z,13.03
2019-05-11T16:01:30.565Z,13.03
2019-05-11T16:04:00.049Z,13.80
2019-05-11T16:06:29.359Z,16.83
2019-05-11T16:08:59.074Z,20.73
2019-05-11T16:11:28.757Z,12.67
2019-05-11T16:14:00.570Z,11.93
2019-05-11T16:16:30.066Z,18.13
2019-05-11T16:19:20.563Z,14.37
2019-05-11T16:21:50.019Z,13.67
2019-05-11T16:24:19.288Z,12.10
2019-05-11T16:26:49.679Z,14.43
2019-05-11T16:29:20.118Z,15.67
2019-05-11T16:31:49.779Z,16.67
2019-05-11T16:34:19.518Z,15.17
2019-05-11T16:36:49.334Z,21.93
2019-05-11T16:39:18.815Z,15.93
2019-05-11T16:41:52.481Z,14.17
2019-05-11T16:44:26.212Z,17.47
2019-05-11T16:46:59.220Z,11.43
2019-05-11T16:49:42.888Z,13.87
